Time;durP1;ratioP1;P1;durP2;ratioP2;P2;SDS_P1;SDS_P2;PMS_P1;PMS_P2;Temp;Humidity;BMP_temperature;BMP_pressure;BME280_temperature;BME280_humidity;BME280_pressure;Samples;Min_cycle;Max_cycle;Signal;HPM_P1;HPM_P2
2021/07/04 00:02:13;;;;;;;7.55;5.93;;;26.10;94.60;;;;;;5087128;28;20024;-44
2021/07/04 00:04:40;;;;;;;9.07;6.13;;;26.10;94.60;;;;;;5086751;28;20084;-43
2021/07/04 00:07:07;;;;;;;7.88;5.50;;;26.10;94.50;;;;;;5085925;28;20029;-39
2021/07/04 00:09:33;;;;;;;6.10;5.50;;;26.10;94.60;;;;;;5086458;28;20016;-42
2021/07/04 00:12:00;;;;;;;9.35;5.78;;;26.10;94.50;;;;;;5086685;28;20032;-49
2021/07/04 00:14:27;;;;;;;6.85;5.60;;;26.10;94.60;;;;;;5085857;28;20313;-50
2021/07/04 00:16:54;;;;;;;7.15;5.65;;;26.10;94.60;;;;;;5086251;28;20050;-43
2021/07/04 00:19:20;;;;;;;6.97;5.88;;;26.10;94.60;;;;;;5086304;28;20065;-47
2021/07/04 00:21:47;;;;;;;12.25;5.88;;;26.10;94.60;;;;;;5086683;28;20032;-46
2021/07/04 00:24:14;;;;;;;13.32;9.88;;;26.10;94.60;;;;;;5086433;28;20092;-45
2021/07/04 00:26:40;;;;;;;10.57;7.38;;;26.10;94.60;;;;;;5085330;28;20020;-43
2021/07/04 00:29:08;;;;;;;7.07;6.38;;;26.10;94.60;;;;;;5086414;28;20043;-47
2021/07/04 00:31:34;;;;;;;7.22;6.47;;;26.10;94.70;;;;;;5086314;28;20077;-53
2021/07/04 00:34:01;;;;;;;;;;;26.10;94.60;;;;;;5086096;28;20017;-44
2021/07/04 00:36:27;;;;;;;;;;;26.10;94.60;;;;;;5086616;28;20204;-55
2021/07/04 00:38:53;;;;;;;;;;;26.10;94.70;;;;;;5086331;28;19900;-44
2021/07/04 00:41:20;;;;;;;;;;;26.10;94.70;;;;;;5086047;28;19912;-42
2021/07/04 00:43:48;;;;;;;;;;;26.10;94.60;;;;;;5086170;28;19942;-46
2021/07/04 00:46:14;;;;;;;;;;;26.10;94.60;;;;;;5086322;28;20180;-44
2021/07/04 00:48:41;;;;;;;;;;;26.10;94.50;;;;;;5085943;28;19924;-42
2021/07/04 00:51:09;;;;;;;;;;;26.10;94.60;;;;;;5086169;28;19983;-49
2021/07/04 00:53:35;;;;;;;;;;;26.10;94.60;;;;;;5086053;28;19946;-41
2021/07/04 00:56:01;;;;;;;;;;;26.10;94.70;;;;;;5086008;28;19908;-41
2021/07/04 00:58:28;;;;;;;;;;;26.10;94.70;;;;;;5086211;28;20180;-42
2021/07/04 01:00:54;;;;;;;;;;;26.10;94.80;;;;;;5084855;28;20215;-52
2021/07/04 01:03:21;;;;;;;6.93;5.63;;;26.10;94.70;;;;;;5085664;28;19923;-46
2021/07/04 01:05:48;;;;;;;10.02;5.60;;;26.10;94.80;;;;;;5085317;28;20029;-45
2021/07/04 01:08:15;;;;;;;12.05;6.13;;;26.10;94.80;;;;;;5085283;28;20028;-49
2021/07/04 01:10:41;;;;;;;6.60;5.40;;;26.10;94.80;;;;;;5085050;28;20048;-41
2021/07/04 01:13:08;;;;;;;;;;;26.10;94.80;;;;;;5084392;28;20024;-51
2021/07/04 01:15:34;;;;;;;;;;;26.10;94.80;;;;;;5085820;28;20165;-51
2021/07/04 01:18:03;;;;;;;;;;;26.10;94.80;;;;;;5085565;28;19911;-46
2021/07/04 01:20:30;;;;;;;;;;;26.10;94.80;;;;;;5084391;28;19912;-45
2021/07/04 01:23:01;;;;;;;;;;;26.10;94.80;;;;;;5085542;28;19904;-40
2021/07/04 01:25:29;;;;;;;;;;;26.10;94.70;;;;;;5084725;28;19913;-51
2021/07/04 01:27:55;;;;;;;;;;;26.10;94.80;;;;;;5085553;28;19987;-55
2021/07/04 01:30:22;;;;;;;;;;;26.10;94.80;;;;;;5085301;28;19925;-51
2021/07/04 01:32:50;;;;;;;;;;;26.10;94.90;;;;;;5085101;28;20188;-53
2021/07/04 01:35:17;;;;;;;;;;;26.10;94.80;;;;;;5085431;28;19908;-42
2021/07/04 01:37:43;;;;;;;;;;;26.10;94.90;;;;;;5085665;28;19955;-51
2021/07/04 01:40:10;;;;;;;;;;;26.10;94.80;;;;;;5085337;28;19904;-47
2021/07/04 01:42:39;;;;;;;;;;;26.10;94.70;;;;;;5085748;28;20273;-51
2021/07/04 01:45:06;;;;;;;;;;;26.10;94.90;;;;;;5084067;28;19940;-49
2021/07/04 01:47:35;;;;;;;;;;;26.00;94.80;;;;;;5083985;28;19943;-45
2021/07/04 01:50:01;;;;;;;;;;;26.00;94.70;;;;;;5085078;28;20094;-51
2021/07/04 01:52:28;;;;;;;;;;;26.00;94.60;;;;;;5084652;28;20203;-51
2021/07/04 01:54:54;;;;;;;;;;;26.00;94.60;;;;;;5067009;28;20200;-57
2021/07/04 01:57:20;;;;;;;;;;;26.00;94.60;;;;;;5084814;28;19912;-53
2021/07/04 01:59:47;;;;;;;;;;;26.00;94.70;;;;;;5084863;28;19980;-45
2021/07/04 02:02:14;;;;;;;;;;;26.00;94.80;;;;;;5084571;28;19979;-47
2021/07/04 02:04:41;;;;;;;;;;;26.00;94.80;;;;;;5084742;28;19916;-40
2021/07/04 02:07:17;;;;;;;;;;;26.00;94.80;;;;;;5084633;28;19911;-41
2021/07/04 02:09:45;;;;;;;8.43;5.45;;;26.00;94.80;;;;;;5084161;28;19909;-52
2021/07/04 02:12:15;;;;;;;7.50;5.20;;;26.00;94.90;;;;;;5084144;28;20013;-40
2021/07/04 02:14:41;;;;;;;;;;;26.00;94.90;;;;;;5084619;28;19930;-51
2021/07/04 02:17:08;;;;;;;;;;;26.00;94.90;;;;;;5084332;28;19927;-50
2021/07/04 02:19:34;;;;;;;;;;;26.00;94.90;;;;;;5067096;28;19908;-45
2021/07/04 02:22:01;;;;;;;;;;;26.00;94.80;;;;;;5084362;28;19908;-46
2021/07/04 02:24:27;;;;;;;;;;;26.00;94.70;;;;;;5084336;28;19908;-46
2021/07/04 02:26:54;;;;;;;;;;;26.00;94.60;;;;;;5084400;28;19907;-44
2021/07/04 02:29:20;;;;;;;;;;;26.00;94.60;;;;;;5084786;28;20168;-47
2021/07/04 02:31:47;;;;;;;;;;;26.00;94.60;;;;;;5084200;28;19915;-49
2021/07/04 02:34:13;;;;;;;;;;;26.00;94.70;;;;;;5084817;28;19908;-47
2021/07/04 02:36:39;;;;;;;;;;;26.00;94.60;;;;;;5084097;28;19975;-45
2021/07/04 02:39:05;;;;;;;;;;;26.00;94.60;;;;;;5084660;28;19901;-53
2021/07/04 02:41:32;;;;;;;;;;;26.00;94.50;;;;;;5084213;28;19958;-48
2021/07/04 02:59:45;;;;;;;;;;;25.90;94.20;;;;;;5098158;28;19947;-46
2021/07/04 03:02:12;;;;;;;;;;;26.10;93.80;;;;;;5098393;28;19913;-46
2021/07/04 03:04:38;;;;;;;;;;;26.10;93.90;;;;;;5098156;28;19904;-46
2021/07/04 03:07:05;;;;;;;;;;;26.10;93.90;;;;;;5097902;28;20133;-46
2021/07/04 03:09:31;;;;;;;;;;;26.10;94.00;;;;;;5098107;28;19955;-45
2021/07/04 03:11:57;;;;;;;;;;;26.10;94.20;;;;;;5098013;28;19904;-47
2021/07/04 03:14:25;;;;;;;;;;;26.00;94.00;;;;;;5097941;28;19904;-45
2021/07/04 03:16:51;;;;;;;;;;;26.10;94.20;;;;;;5098139;28;20155;-46
2021/07/04 03:19:17;;;;;;;;;;;26.00;94.30;;;;;;5098061;28;19912;-48
2021/07/04 03:21:43;;;;;;;;;;;26.00;94.30;;;;;;5097765;28;19953;-48
2021/07/04 03:24:10;;;;;;;;;;;26.00;94.30;;;;;;5096901;28;20101;-48
2021/07/04 03:26:36;;;;;;;;;;;26.00;94.30;;;;;;5097886;28;19908;-48
2021/07/04 03:29:03;;;;;;;;;;;26.00;94.40;;;;;;5098046;28;19983;-53
2021/07/04 03:31:29;;;;;;;;;;;26.00;94.40;;;;;;5097963;28;20120;-51
2021/07/04 03:33:55;;;;;;;;;;;26.00;94.40;;;;;;5096941;27;19912;-51
2021/07/04 03:36:22;;;;;;;;;;;26.00;94.50;;;;;;5097664;28;19915;-50
2021/07/04 03:38:57;;;;;;;;;;;26.00;94.60;;;;;;5097565;28;19943;-52
2021/07/04 03:41:24;;;;;;;;;;;26.00;94.60;;;;;;5097694;28;19904;-51
2021/07/04 03:43:50;;;;;;;;;;;26.00;94.60;;;;;;5097536;28;19954;-52
2021/07/04 03:46:25;;;;;;;;;;;25.90;94.60;;;;;;5097655;28;20193;-47
2021/07/04 03:48:54;;;;;;;;;;;25.90;94.60;;;;;;5097262;28;19951;-47
2021/07/04 03:51:21;;;;;;;;;;;25.90;94.50;;;;;;5097433;28;20134;-46
2021/07/04 03:53:47;;;;;;;;;;;26.00;94.60;;;;;;5097829;28;19912;-47
2021/07/04 03:56:14;;;;;;;;;;;25.90;94.40;;;;;;5097611;28;19904;-50
2021/07/04 03:58:40;;;;;;;;;;;25.90;94.30;;;;;;5094775;28;19991;-51
2021/07/04 04:01:06;;;;;;;;;;;25.90;94.20;;;;;;5083668;28;19904;-49
2021/07/04 04:03:33;;;;;;;;;;;25.90;94.20;;;;;;5084283;28;20176;-50
2021/07/04 04:06:14;;;;;;;;;;;25.90;94.10;;;;;;5083757;28;20154;-48
2021/07/04 04:08:41;;;;;;;;;;;25.90;94.10;;;;;;5082832;27;19974;-48
2021/07/04 04:11:07;;;;;;;;;;;25.90;94.10;;;;;;5083603;28;19931;-46
2021/07/04 04:13:34;;;;;;;;;;;25.90;94.10;;;;;;5084035;28;20107;-51
2021/07/04 04:16:00;;;;;;;;;;;25.90;94.10;;;;;;5083529;28;19919;-51
2021/07/04 04:18:27;;;;;;;;;;;25.90;94.10;;;;;;5083897;28;19919;-53
2021/07/04 04:20:55;;;;;;;;;;;25.90;94.20;;;;;;5083353;28;19912;-51
2021/07/04 04:23:22;;;;;;;;;;;25.90;94.20;;;;;;5083966;27;19912;-51
2021/07/04 04:25:49;;;;;;;;;;;25.90;94.20;;;;;;5083433;28;19904;-51
2021/07/04 04:28:16;;;;;;;;;;;25.90;94.30;;;;;;5083247;28;20146;-51
2021/07/04 04:30:42;;;;;;;;;;;25.90;94.30;;;;;;5083358;28;19975;-51
2021/07/04 04:33:09;;;;;;;;;;;25.90;94.40;;;;;;5083229;28;19963;-51
2021/07/04 04:35:35;;;;;;;;;;;25.90;94.40;;;;;;5083111;28;20100;-46
2021/07/04 04:38:01;;;;;;;;;;;25.90;94.40;;;;;;5083162;28;19920;-46
2021/07/04 04:40:28;;;;;;;;;;;25.90;94.50;;;;;;5083198;28;20095;-46
2021/07/04 04:42:54;;;;;;;;;;;25.90;94.50;;;;;;5082893;28;20141;-46
2021/07/04 04:45:21;;;;;;;;;;;25.90;94.50;;;;;;5083144;28;20148;-46
2021/07/04 04:47:47;;;;;;;;;;;25.90;94.60;;;;;;5082939;28;19953;-47
2021/07/04 04:50:14;;;;;;;;;;;25.90;94.50;;;;;;5082808;28;19912;-46
2021/07/04 04:52:46;;;;;;;;;;;25.90;94.60;;;;;;5082934;28;19919;-46
2021/07/04 04:55:13;;;;;;;;;;;25.90;94.70;;;;;;5082949;28;19905;-46
2021/07/04 04:57:40;;;;;;;;;;;25.90;94.50;;;;;;5082595;28;19939;-46
2021/07/04 05:00:09;;;;;;;;;;;25.90;94.50;;;;;;5082893;28;19936;-46
2021/07/04 05:02:35;;;;;;;;;;;25.90;94.40;;;;;;5083042;28;19912;-46
2021/07/04 05:05:02;;;;;;;;;;;25.90;94.20;;;;;;5081725;27;19905;-46
2021/07/04 05:07:29;;;;;;;;;;;25.90;94.10;;;;;;5082943;27;19924;-46
2021/07/04 05:09:58;;;;;;;;;;;25.90;94.10;;;;;;5082682;28;19904;-45
2021/07/04 05:12:24;;;;;;;;;;;25.90;94.00;;;;;;5081502;28;20141;-45
2021/07/04 05:14:50;;;;;;;;;;;25.90;94.00;;;;;;5082659;28;19911;-46
2021/07/04 05:17:17;;;;;;;;;;;25.90;94.00;;;;;;5082572;28;19919;-46
2021/07/04 05:19:47;;;;;;;;;;;25.90;93.90;;;;;;5082381;28;20129;-46
2021/07/04 05:22:13;;;;;;;;;;;25.90;93.90;;;;;;5081323;28;19912;-46
2021/07/04 05:24:40;;;;;;;;;;;25.80;93.80;;;;;;5082570;28;19904;-46
2021/07/04 05:27:06;;;;;;;;;;;25.80;93.80;;;;;;5082355;28;19956;-46
2021/07/04 05:29:36;;;;;;;;;;;25.90;93.80;;;;;;5082792;28;19904;-46
2021/07/04 05:32:02;;;;;;;;;;;25.90;93.80;;;;;;5082683;28;19943;-45
2021/07/04 05:34:29;;;;;;;;;;;25.90;93.60;;;;;;5082504;28;20158;-46
2021/07/04 05:36:56;;;;;;;;;;;25.90;93.70;;;;;;5082988;27;20185;-46
2021/07/04 05:39:26;;;;;;;;;;;25.90;93.70;;;;;;5082755;28;19971;-46
2021/07/04 05:41:52;;;;;;;;;;;25.90;93.80;;;;;;5081227;27;20104;-46
2021/07/04 05:44:19;;;;;;;;;;;25.90;93.60;;;;;;5082442;28;19976;-45
2021/07/04 05:46:47;;;;;;;;;;;25.80;93.60;;;;;;5082284;28;19905;-45
2021/07/04 05:49:16;;;;;;;;;;;25.80;93.70;;;;;;5082026;28;20212;-45
2021/07/04 05:51:46;;;;;;;;;;;25.80;93.70;;;;;;5082496;28;19909;-45
2021/07/04 05:54:12;;;;;;;;;;;25.80;93.70;;;;;;5082307;28;19954;-47
2021/07/04 05:56:38;;;;;;;;;;;25.80;93.70;;;;;;5082148;28;20112;-46
2021/07/04 05:59:05;;;;;;;;;;;25.80;93.80;;;;;;5081999;28;19920;-46
2021/07/04 06:01:32;;;;;;;;;;;25.80;93.80;;;;;;5082103;28;19904;-46
2021/07/04 06:03:58;;;;;;;;;;;25.80;93.70;;;;;;5081949;28;19924;-46
2021/07/04 06:06:30;;;;;;;;;;;25.80;93.70;;;;;;5082118;28;20134;-45
2021/07/04 06:08:57;;;;;;;;;;;25.80;93.70;;;;;;5081882;28;19916;-47
2021/07/04 06:11:26;;;;;;;;;;;25.80;93.80;;;;;;5082079;28;19904;-47
2021/07/04 06:13:59;;;;;;;;;;;25.70;93.80;;;;;;5081926;28;19912;-46
2021/07/04 06:16:25;;;;;;;;;;;25.70;93.80;;;;;;5081797;28;19912;-46
2021/07/04 06:18:58;;;;;;;;;;;25.70;93.70;;;;;;5080881;28;20131;-46
2021/07/04 06:21:24;;;;;;;;;;;25.70;94.00;;;;;;5081897;28;19904;-45
2021/07/04 06:23:51;;;;;;;;;;;25.70;93.80;;;;;;5081380;28;19904;-45
2021/07/04 06:26:20;;;;;;;;;;;25.70;93.80;;;;;;5081716;28;19912;-46
2021/07/04 06:28:55;;;;;;;;;;;25.70;93.80;;;;;;5080633;27;19915;-46
2021/07/04 06:31:28;;;;;;;;;;;25.70;94.00;;;;;;5081599;28;19912;-45
2021/07/04 06:33:59;;;;;;;;;;;25.70;93.90;;;;;;5080708;27;20191;-46
2021/07/04 06:36:26;;;;;;;;;;;25.70;93.90;;;;;;5080618;27;20219;-45
2021/07/04 06:38:53;;;;;;;;;;;25.70;93.90;;;;;;5081475;28;19912;-45
2021/07/04 06:41:20;;;;;;;;;;;25.70;93.90;;;;;;5080478;27;19919;-45
2021/07/04 06:43:46;;;;;;;;;;;25.70;94.00;;;;;;5081417;28;20196;-45
2021/07/04 06:46:15;;;;;;;;;;;25.70;94.00;;;;;;5081463;28;19922;-45
2021/07/04 06:48:42;;;;;;;;;;;25.70;94.10;;;;;;5081246;28;20209;-45
2021/07/04 06:51:08;;;;;;;;;;;25.70;94.10;;;;;;5081179;28;19928;-45
2021/07/04 06:53:35;;;;;;;;;;;25.70;94.20;;;;;;5081348;28;19913;-46
2021/07/04 06:56:02;;;;;;;;;;;25.70;94.20;;;;;;5081212;28;19905;-45
2021/07/04 06:58:28;;;;;;;;;;;25.70;94.20;;;;;;5081042;28;19927;-45
2021/07/04 07:00:54;;;;;;;;;;;25.70;94.20;;;;;;5081030;28;19944;-45
2021/07/04 07:03:20;;;;;;;;;;;25.70;94.20;;;;;;5081092;28;19916;-46
2021/07/04 07:05:49;;;;;;;;;;;25.70;94.20;;;;;;5080981;28;20093;-46
2021/07/04 07:08:19;;;;;;;;;;;25.70;94.30;;;;;;5080922;28;19942;-46
2021/07/04 07:10:48;;;;;;;;;;;25.70;94.40;;;;;;5081005;28;19914;-46
2021/07/04 07:19:46;;;;;;;;;;;25.70;94.50;;;;;;5124430;27;19949;-47
2021/07/04 07:22:13;;;;;;;;;;;25.70;94.60;;;;;;5124593;28;20223;-46
2021/07/04 07:24:39;;;;;;;;;;;25.70;94.60;;;;;;5124534;28;19910;-46
2021/07/04 07:27:05;;;;;;;;;;;25.60;94.60;;;;;;5124839;28;19948;-46
2021/07/04 07:29:31;;;;;;;;;;;25.60;94.90;;;;;;5124524;28;19904;-46
2021/07/04 07:31:57;;;;;;;;;;;25.60;94.60;;;;;;5124928;28;19934;-46
2021/07/04 07:34:25;;;;;;;;;;;25.70;94.70;;;;;;5125378;28;19911;-46
2021/07/04 07:36:52;;;;;;;;;;;25.70;94.80;;;;;;5128711;28;19911;-46
2021/07/04 07:39:18;;;;;;;;;;;25.70;94.80;;;;;;5128339;28;20100;-46
2021/07/04 07:41:44;;;;;;;;;;;25.60;94.80;;;;;;5128554;28;19912;-46
2021/07/04 07:44:12;;;;;;;;;;;25.60;94.80;;;;;;5128205;28;19935;-46
2021/07/04 07:46:39;;;;;;;;;;;25.60;94.70;;;;;;5128610;28;19947;-47
2021/07/04 07:49:06;;;;;;;;;;;25.60;94.80;;;;;;5128015;28;20237;-45
2021/07/04 07:51:32;;;;;;;;;;;25.60;94.80;;;;;;5128569;28;20088;-46
2021/07/04 07:53:58;;;;;;;;;;;25.60;94.80;;;;;;5128010;28;19904;-45
2021/07/04 07:56:25;;;;;;;;;;;25.60;94.70;;;;;;5128121;28;19911;-46
2021/07/04 07:58:51;;;;;;;;;;;25.60;94.60;;;;;;5109679;28;19904;-46
2021/07/04 08:01:17;;;;;;;;;;;25.60;94.60;;;;;;5128328;28;19919;-46
2021/07/04 08:03:44;;;;;;;;;;;25.60;94.40;;;;;;5127714;28;19903;-47
2021/07/04 08:06:11;;;;;;;;;;;25.60;94.50;;;;;;5128079;28;19912;-47
2021/07/04 08:08:37;;;;;;;;;;;25.60;94.50;;;;;;5127633;28;19908;-46
2021/07/04 08:11:04;;;;;;;;;;;25.60;94.60;;;;;;5127941;28;19916;-48
2021/07/04 08:13:30;;;;;;;;;;;25.60;94.70;;;;;;5127668;28;20131;-46
2021/07/04 08:15:56;;;;;;;;;;;25.60;94.70;;;;;;5127860;28;20178;-46
2021/07/04 08:18:24;;;;;;;;;;;25.60;94.70;;;;;;5127587;28;19903;-45
2021/07/04 08:20:51;;;;;;;;;;;25.60;94.70;;;;;;5109079;28;20162;-45
2021/07/04 08:23:17;;;;;;;;;;;25.60;94.80;;;;;;5127345;28;19931;-47
2021/07/04 08:25:44;;;;;;;;;;;25.60;94.80;;;;;;5127244;28;19953;-51
2021/07/04 08:28:10;;;;;;;;;;;25.60;95.00;;;;;;5126965;28;19908;-46
2021/07/04 08:30:36;;;;;;;;;;;25.70;94.80;;;;;;5127588;28;19911;-46
2021/07/04 08:33:03;;;;;;;;;;;25.80;94.70;;;;;;5127365;28;19904;-46
2021/07/04 08:35:29;;;;;;;;;;;25.90;94.70;;;;;;5127470;28;20091;-46
2021/07/04 08:37:55;;;;;;;;;;;25.90;94.60;;;;;;5127305;28;19903;-50
2021/07/04 08:40:22;;;;;;;;;;;26.00;94.60;;;;;;5127499;28;20283;-50
2021/07/04 08:42:48;;;;;;;;;;;26.00;94.60;;;;;;5127096;28;20077;-48
2021/07/04 08:45:14;;;;;;;;;;;26.00;94.60;;;;;;5127144;28;19912;-49
2021/07/04 08:47:40;;;;;;;;;;;26.10;94.60;;;;;;5126961;28;19957;-46
2021/07/04 08:50:08;;;;;;;;;;;26.10;94.60;;;;;;5126742;28;19978;-47
2021/07/04 08:52:36;;;;;;;;;;;26.10;94.50;;;;;;5127168;28;19904;-47
2021/07/04 08:55:08;;;;;;;;;;;26.10;94.50;;;;;;5127028;28;19908;-47
2021/07/04 08:57:37;;;;;;;;;;;26.10;94.50;;;;;;5126802;28;19904;-48
2021/07/04 09:00:06;;;;;;;;;;;26.00;94.50;;;;;;5126791;28;19903;-47
2021/07/04 09:02:33;;;;;;;;;;;26.00;94.60;;;;;;5126807;28;19982;-47
2021/07/04 09:05:01;;;;;;;;;;;26.10;94.60;;;;;;5126557;28;20219;-44
2021/07/04 09:07:28;;;;;;;;;;;26.00;94.60;;;;;;5125667;28;19919;-47
2021/07/04 09:09:58;;;;;;;;;;;26.00;94.60;;;;;;5126651;28;19907;-54
2021/07/04 09:12:44;;;;;;;;;;;26.00;94.70;;;;;;5126505;28;19983;-48
2021/07/04 09:15:10;;;;;;;;;;;26.00;94.70;;;;;;5126195;28;20212;-47
2021/07/04 09:17:38;;;;;;;;;;;26.00;94.70;;;;;;5126472;28;19910;-50
2021/07/04 09:20:06;;;;;;;;;;;26.00;94.80;;;;;;5126462;28;20096;-49
2021/07/04 09:22:40;;;;;;;;;;;26.00;94.80;;;;;;5126445;28;19903;-47
2021/07/04 09:25:33;;;;;;;;;;;25.90;94.80;;;;;;5126468;28;19924;-50
2021/07/04 09:28:00;;;;;;;;;;;25.90;94.90;;;;;;5121949;28;19907;-48
2021/07/04 09:30:47;;;;;;;;;;;25.90;94.90;;;;;;5126591;28;19918;-47
2021/07/04 09:33:19;;;;;;;;;;;25.90;95.10;;;;;;5125740;28;19975;-46
2021/07/04 09:36:12;;;;;;;;;;;25.90;94.90;;;;;;5126276;28;19912;-46
2021/07/04 09:38:39;;;;;;;;;;;25.90;94.90;;;;;;5121469;28;19910;-47
2021/07/04 09:41:07;;;;;;;;;;;25.90;95.00;;;;;;5126320;28;19916;-46
2021/07/04 09:43:33;;;;;;;;;;;25.90;95.00;;;;;;5125821;28;19904;-45
2021/07/04 09:46:06;;;;;;;;;;;25.90;95.00;;;;;;5126031;28;20088;-50
2021/07/04 09:48:38;;;;;;;;;;;25.90;95.00;;;;;;5125789;28;19939;-46
2021/07/04 09:51:12;;;;;;;;;;;25.90;94.90;;;;;;5125705;28;20204;-47
2021/07/04 09:53:44;;;;;;;;;;;25.90;94.80;;;;;;5125730;28;20131;-47
2021/07/04 09:56:12;;;;;;;;;;;25.90;94.80;;;;;;5125611;28;19911;-46
2021/07/04 09:58:39;;;;;;;;;;;25.90;94.80;;;;;;5125232;28;20214;-48
2021/07/04 10:01:05;;;;;;;;;;;25.90;94.80;;;;;;5126082;28;19951;-48
2021/07/04 10:03:32;;;;;;;;;;;25.90;94.80;;;;;;5126164;28;19903;-52
2021/07/04 10:05:59;;;;;;;;;;;25.90;94.70;;;;;;5125481;28;19926;-48
2021/07/04 10:08:30;;;;;;;;;;;25.90;94.60;;;;;;5126303;28;19908;-48
2021/07/04 10:10:58;;;;;;;;;;;25.90;94.60;;;;;;5125725;28;19933;-48
2021/07/04 10:13:24;;;;;;;;;;;25.90;94.60;;;;;;5125543;28;19911;-47
2021/07/04 10:15:51;;;;;;;;;;;25.90;94.70;;;;;;5125819;28;19911;-46
2021/07/04 10:18:17;;;;;;;;;;;25.90;94.60;;;;;;5125626;28;19945;-47
2021/07/04 10:20:44;;;;;;;;;;;25.80;94.60;;;;;;5125223;27;19939;-46
2021/07/04 10:23:11;;;;;;;;;;;25.80;94.60;;;;;;5125490;28;19904;-47
2021/07/04 10:25:38;;;;;;;;;;;25.80;94.60;;;;;;5125154;28;19912;-47
2021/07/04 10:28:04;;;;;;;;;;;25.80;94.60;;;;;;5125408;28;19908;-47
2021/07/04 10:30:32;;;;;;;;;;;25.70;94.60;;;;;;5125411;28;20099;-47
2021/07/04 10:33:13;;;;;;;;;;;25.70;94.70;;;;;;5125184;28;19926;-48
2021/07/04 10:35:58;;;;;;;;;;;25.70;94.90;;;;;;5125555;28;19919;-47
2021/07/04 10:38:25;;;;;;;;;;;25.70;94.70;;;;;;5125227;28;20206;-46
2021/07/04 10:41:04;;;;;;;;;;;25.70;94.90;;;;;;5125326;28;19912;-49
2021/07/04 10:43:49;;;;;;;;;;;25.70;94.70;;;;;;5125118;28;19911;-47
2021/07/04 10:46:15;;;;;;;;;;;25.70;94.70;;;;;;5125138;28;19912;-47
2021/07/04 10:48:54;;;;;;;;;;;25.70;94.70;;;;;;5125405;28;20242;-47
2021/07/04 10:51:22;;;;;;;;;;;25.70;94.80;;;;;;5125095;28;19912;-49
2021/07/04 10:53:52;;;;;;;;;;;25.70;94.80;;;;;;5125166;28;20207;-45
2021/07/04 10:56:38;;;;;;;;;;;25.70;94.80;;;;;;5125039;27;19915;-46
2021/07/04 10:59:09;;;;;;;;;;;25.70;94.90;;;;;;5125590;28;19911;-48
2021/07/04 11:01:47;;;;;;;;;;;25.60;94.80;;;;;;5125432;28;19911;-47
2021/07/04 11:04:28;;;;;;;;;;;25.70;94.90;;;;;;5125107;28;20103;-47
2021/07/04 11:06:59;;;;;;;;;;;25.70;94.80;;;;;;5124459;28;19911;-45
2021/07/04 11:09:25;;;;;;;;;;;25.60;94.80;;;;;;5126267;28;19907;-47
2021/07/04 11:12:11;;;;;;;;;;;25.60;94.80;;;;;;5129037;28;19904;-47
2021/07/04 11:14:37;;;;;;;;;;;25.60;94.80;;;;;;5128898;28;19915;-47
2021/07/04 11:17:04;;;;;;;;;;;25.60;94.80;;;;;;5129312;28;19904;-52
2021/07/04 11:19:30;;;;;;;;;;;25.70;94.90;;;;;;5128766;28;19935;-50
2021/07/04 11:21:56;;;;;;;;;;;25.60;94.80;;;;;;5128854;28;19970;-50
2021/07/04 11:24:24;;;;;;;;;;;25.60;94.90;;;;;;5128791;28;19976;-46
2021/07/04 11:27:13;;;;;;;;;;;25.60;94.90;;;;;;5128647;28;20207;-46
2021/07/04 11:29:59;;;;;;;;;;;25.60;94.90;;;;;;5116097;28;19954;-50
2021/07/04 11:32:25;;;;;;;;;;;25.60;94.90;;;;;;5128946;28;20092;-47
2021/07/04 11:34:52;;;;;;;;;;;25.60;94.90;;;;;;5128531;28;19904;-49
2021/07/04 11:37:18;;;;;;;;;;;25.60;94.90;;;;;;5128708;28;19912;-48
2021/07/04 11:39:59;;;;;;;;;;;25.60;94.90;;;;;;5128410;28;19904;-47
2021/07/04 11:42:25;;;;;;;;;;;25.60;94.90;;;;;;5128400;28;19943;-45
2021/07/04 11:44:53;;;;;;;;;;;25.60;94.90;;;;;;5128267;28;20214;-47
2021/07/04 11:47:19;;;;;;;;;;;25.60;94.90;;;;;;5128407;28;19988;-48
2021/07/04 11:49:46;;;;;;;;;;;25.60;94.90;;;;;;5128526;28;19910;-47
2021/07/04 11:52:18;;;;;;;;;;;25.60;95.00;;;;;;5128310;28;19912;-48
2021/07/04 11:54:44;;;;;;;;;;;25.60;94.90;;;;;;5128215;28;20157;-48
2021/07/04 11:57:30;;;;;;;;;;;25.60;94.90;;;;;;5128396;28;19919;-50
2021/07/04 11:59:58;;;;;;;;;;;25.60;94.90;;;;;;5128295;28;19904;-48
2021/07/04 12:02:24;;;;;;;;;;;25.60;94.90;;;;;;5128684;28;19953;-47
2021/07/04 12:04:51;;;;;;;;;;;25.60;94.90;;;;;;5128222;28;19946;-51
2021/07/04 12:07:21;;;;;;;;;;;25.60;94.90;;;;;;5128013;28;19912;-48
2021/07/04 12:09:47;;;;;;;;;;;25.70;95.00;;;;;;5127850;28;20192;-47
2021/07/04 12:12:15;;;;;;;;;;;25.70;94.90;;;;;;5127777;28;19912;-47
2021/07/04 12:14:42;;;;;;;;;;;25.60;94.90;;;;;;5127872;28;19957;-47
2021/07/04 12:17:27;;;;;;;;;;;25.70;94.90;;;;;;5127819;28;20017;-47
2021/07/04 12:19:56;;;;;;;;;;;25.70;95.00;;;;;;5127567;28;19904;-49
2021/07/04 12:22:24;;;;;;;;;;;25.70;95.00;;;;;;5128145;28;19911;-48
2021/07/04 12:24:50;;;;;;;;;;;25.70;94.90;;;;;;5127446;28;20192;-47
2021/07/04 12:27:35;;;;;;;;;;;25.70;94.90;;;;;;5128071;28;20122;-47
2021/07/04 12:30:10;;;;;;;;;;;25.70;94.90;;;;;;5127466;28;19910;-50
2021/07/04 12:32:38;;;;;;;;;;;25.70;94.90;;;;;;5127776;28;20133;-46
2021/07/04 12:35:06;;;;;;;;;;;25.70;94.90;;;;;;5127356;28;19930;-47
2021/07/04 12:37:32;;;;;;;;;;;25.70;94.90;;;;;;5127090;28;19912;-47
2021/07/04 12:40:06;;;;;;;;;;;25.70;94.80;;;;;;5127407;28;19903;-45
2021/07/04 12:42:32;;;;;;;;;;;25.70;94.80;;;;;;5127626;28;20134;-47
2021/07/04 12:45:05;;;;;;;;;;;25.80;94.80;;;;;;5127416;28;20249;-47
2021/07/04 12:47:43;;;;;;;;;;;25.70;94.80;;;;;;5109666;28;20095;-47
2021/07/04 12:50:14;;;;;;;;;;;25.80;94.80;;;;;;5127241;28;20060;-46
2021/07/04 12:52:57;;;;;;;;;;;25.80;94.90;;;;;;5126981;28;19945;-46
2021/07/04 12:55:38;;;;;;;;;;;25.80;94.90;;;;;;5126942;28;19908;-47
2021/07/04 12:58:19;;;;;;;;;;;25.80;94.80;;;;;;5127446;28;19912;-47
2021/07/04 13:00:46;;;;;;;;;;;25.80;94.80;;;;;;5127220;28;19945;-47
2021/07/04 13:03:33;;;;;;;;;;;25.80;94.90;;;;;;5127143;28;19939;-47
2021/07/04 13:05:59;;;;;;;;;;;25.80;94.80;;;;;;5075542;28;19908;-47
2021/07/04 13:08:25;;;;;;;;;;;25.90;94.80;;;;;;5126594;28;20216;-46
2021/07/04 13:10:51;;;;;;;;;;;25.90;94.80;;;;;;5126580;28;19907;-49
2021/07/04 13:13:18;;;;;;;;;;;25.90;94.80;;;;;;5126325;28;19916;-46
2021/07/04 13:15:44;;;;;;;;;;;25.90;94.80;;;;;;5108551;28;19908;-49
2021/07/04 13:18:28;;;;;;;;;;;25.90;94.90;;;;;;5126740;28;19934;-48
2021/07/04 13:20:55;;;;;;;;;;;25.90;94.80;;;;;;5126883;28;19911;-47
2021/07/04 13:23:22;;;;;;;;;;;25.90;94.80;;;;;;5126329;28;19912;-46
2021/07/04 13:25:55;;;;;;;;;;;25.90;94.80;;;;;;5126329;28;19925;-44
2021/07/04 13:28:29;;;;;;;;;;;25.90;94.80;;;;;;5126073;28;19986;-46
2021/07/04 13:30:57;;;;;;;;;;;25.90;94.90;;;;;;5126319;28;19949;-47
2021/07/04 13:33:35;;;;;;;;;;;25.90;94.60;;;;;;5107197;28;19919;-47
2021/07/04 13:36:11;;;;;;;;;;;25.90;94.60;;;;;;5126085;28;19910;-46
2021/07/04 13:38:55;;;;;;;;;;;25.90;94.50;;;;;;5126277;28;19916;-46
2021/07/04 13:41:22;;;;;;;;;;;25.90;94.50;;;;;;5125916;28;19931;-46
2021/07/04 13:43:51;;;;;;;;;;;26.00;94.50;;;;;;5125782;28;20108;-47
2021/07/04 13:46:17;;;;;;;;;;;26.00;94.50;;;;;;5125940;28;20129;-46
2021/07/04 13:48:44;;;;;;;;;;;26.00;94.40;;;;;;5107432;28;19922;-47
2021/07/04 13:51:10;;;;;;;;;;;26.00;94.40;;;;;;5125706;28;19941;-50
2021/07/04 13:53:37;;;;;;;;;;;26.10;94.40;;;;;;5125766;28;20065;-48
2021/07/04 13:56:03;;;;;;;;;;;26.10;94.40;;;;;;5107699;28;19942;-47
2021/07/04 13:58:30;;;;;;;;;;;26.10;94.30;;;;;;5125574;28;20164;-47
2021/07/04 14:01:09;;;;;;;;;;;26.10;94.30;;;;;;5125697;28;19975;-50
2021/07/04 14:03:35;;;;;;;;;;;26.10;94.20;;;;;;5125744;28;19965;-50
2021/07/04 14:06:02;;;;;;;;;;;26.20;94.30;;;;;;5125581;28;19911;-48
2021/07/04 14:08:28;;;;;;;;;;;26.20;94.10;;;;;;5125705;28;20192;-47
2021/07/04 14:10:54;;;;;;;;;;;26.20;94.10;;;;;;5126005;28;20143;-47
2021/07/04 14:13:24;;;;;;;;;;;26.20;94.10;;;;;;5125416;28;19927;-49
2021/07/04 14:15:51;;;;;;;;;;;26.20;93.90;;;;;;5126114;28;19916;-47
2021/07/04 14:18:17;;;;;;;;;;;26.20;93.90;;;;;;5125397;28;19904;-46
2021/07/04 14:20:44;;;;;;;;;;;26.20;93.90;;;;;;5125233;28;19918;-47
2021/07/04 14:23:10;;;;;;;;;;;26.30;93.90;;;;;;5125791;28;20192;-47
2021/07/04 14:25:37;;;;;;;;;;;26.30;94.00;;;;;;5125205;28;19912;-47
2021/07/04 14:28:04;;;;;;;;;;;26.30;93.90;;;;;;5125117;28;19907;-47
2021/07/04 14:30:31;;;;;;;;;;;26.30;94.00;;;;;;5125549;28;19912;-46
2021/07/04 14:32:58;;;;;;;;;;;26.30;94.00;;;;;;5125156;28;19904;-47
2021/07/04 14:35:25;;;;;;;;;;;26.30;94.10;;;;;;5125441;28;19919;-48
2021/07/04 14:37:52;;;;;;;;;;;26.30;94.00;;;;;;5125871;28;19904;-47
2021/07/04 14:40:24;;;;;;;;;;;26.30;94.10;;;;;;5125268;28;19918;-47
2021/07/04 14:42:51;;;;;;;;;;;26.30;94.00;;;;;;5124781;28;20259;-48